Route Details

Aircraft Information
Group: Trans-Atlantic Ops
Types: A31F, B744, B763, MD11
Route Data
Distance: 3135nm
Duration: 8h 30m
Origin METAR: EGNX 160020Z 24006KT CAVOK 19/14 Q1006
Dest. METAR: KIAD 152352Z 31005KT 10SM BKN080 BKN120 BKN160 19/16 A2997 RMK AO2 SLP147 T01940161 10217 20194 58000
Freight Data
(for Aug 16, 2022)
Load Factor:
83%
Manifested Cargo: 144,800lbs
Financial History
Total Freight: 111,199lbs
Average Load: 0lbs/flt
Fuel Used: 275,383lbs
Avg. Fuel Used: 0lbs/flt
Fuel Expense: $131,304
Avg. Fuel Expense: $0
Avg. Fuel Cost: $0/lbs
Total Gross Income: $257,982
Pilot Pay: $238
Total Expenses: $55,932
Total Revenue: $66,043
Average Revenue: $0

Capitol Logistics 549




EGNX
East Midlands Airport
Derby, GB
KIAD
Washington Dulles International Airport
Dulles, US